createdAt,value
2018-08-22T00:01:10.168Z,5.50
2018-08-22T00:03:13.178Z,5.00
2018-08-22T00:05:16.983Z,5.00
2018-08-22T00:07:20.664Z,5.30
2018-08-22T00:09:23.586Z,4.90
2018-08-22T00:11:26.545Z,5.00
2018-08-22T00:13:30.218Z,5.17
2018-08-22T00:15:33.140Z,5.17
2018-08-22T00:17:36.846Z,4.67
2018-08-22T00:19:40.626Z,4.70
2018-08-22T00:21:43.712Z,5.23
2018-08-22T00:23:47.429Z,5.17
2018-08-22T00:25:50.346Z,4.60
2018-08-22T00:27:53.263Z,5.07
2018-08-22T00:29:56.990Z,4.87
2018-08-22T00:32:00.777Z,5.10
2018-08-22T00:34:04.453Z,5.03
2018-08-22T00:36:08.190Z,5.57
2018-08-22T00:38:11.110Z,4.70
2018-08-22T00:40:14.146Z,5.07
2018-08-22T00:42:17.865Z,5.37
2018-08-22T00:44:20.789Z,5.07
2018-08-22T00:46:23.732Z,5.73
2018-08-22T00:48:26.791Z,4.67
2018-08-22T00:50:30.495Z,5.30
2018-08-22T00:52:34.194Z,5.10
2018-08-22T00:54:38.040Z,5.37
2018-08-22T00:56:40.982Z,5.60
2018-08-22T00:58:44.661Z,4.60
2018-08-22T01:00:47.686Z,5.37
2018-08-22T01:02:50.607Z,5.37
2018-08-22T01:04:53.532Z,5.80
2018-08-22T01:06:57.241Z,4.73
2018-08-22T01:09:00.169Z,4.90
2018-08-22T01:11:03.088Z,5.40
2018-08-22T01:13:07.006Z,5.53
2018-08-22T01:15:09.949Z,5.93
2018-08-22T01:17:12.877Z,4.80
2018-08-22T01:19:15.941Z,5.27
2018-08-22T01:21:19.628Z,5.43
2018-08-22T01:23:23.309Z,5.20
2018-08-22T01:25:26.289Z,4.80
2018-08-22T01:27:29.203Z,4.80
2018-08-22T01:29:32.890Z,5.87
2018-08-22T01:31:36.793Z,5.40
2018-08-22T01:33:40.489Z,5.67
2018-08-22T01:35:44.196Z,5.20
2018-08-22T01:37:47.923Z,5.07
2018-08-22T01:39:50.903Z,4.67
2018-08-22T01:41:53.944Z,5.30
2018-08-22T01:43:56.897Z,5.60
2018-08-22T01:45:59.822Z,5.43
2018-08-22T01:48:02.733Z,4.83
2018-08-22T01:50:05.821Z,4.80
2018-08-22T01:52:08.742Z,4.80
2018-08-22T01:54:11.779Z,4.77
2018-08-22T01:56:15.490Z,5.70
2018-08-22T01:58:18.414Z,4.77
2018-08-22T02:00:21.341Z,5.50
2018-08-22T02:02:25.143Z,5.70
2018-08-22T02:04:28.822Z,5.20
2018-08-22T02:06:32.518Z,5.20
2018-08-22T02:08:35.465Z,5.37
2018-08-22T02:10:38.382Z,5.00
2018-08-22T02:12:41.297Z,5.93
2018-08-22T02:14:44.265Z,5.43
2018-08-22T02:16:48.088Z,5.97
2018-08-22T02:18:51.011Z,5.37
2018-08-22T02:20:54.152Z,5.27
2018-08-22T02:22:57.073Z,5.20
2018-08-22T02:25:00.148Z,5.90
2018-08-22T02:27:03.071Z,5.93
2018-08-22T02:29:05.995Z,5.17
2018-08-22T02:31:09.873Z,5.50
2018-08-22T02:33:13.595Z,6.17
2018-08-22T02:35:16.528Z,5.53
2018-08-22T02:37:19.455Z,4.87
2018-08-22T02:39:22.524Z,5.70
2018-08-22T02:41:26.225Z,5.47
2018-08-22T02:43:30.028Z,5.13
2018-08-22T02:45:33.754Z,5.40
2018-08-22T02:47:36.679Z,5.20
2018-08-22T02:49:39.603Z,5.57
2018-08-22T02:51:42.573Z,5.90
2018-08-22T02:53:46.270Z,5.50
2018-08-22T02:55:49.960Z,5.90
2018-08-22T02:57:53.687Z,5.00
2018-08-22T02:59:56.606Z,5.40
2018-08-22T03:01:59.636Z,6.10
2018-08-22T03:04:03.454Z,5.90
2018-08-22T03:06:06.366Z,5.60
2018-08-22T03:08:09.383Z,5.77
2018-08-22T03:10:12.335Z,6.60
2018-08-22T03:12:15.266Z,6.47
2018-08-22T03:14:18.951Z,5.43
2018-08-22T03:16:22.788Z,6.17
2018-08-22T03:18:25.719Z,5.90
2018-08-22T03:20:28.646Z,5.93
2018-08-22T03:22:31.615Z,5.23
2018-08-22T03:24:35.315Z,6.10
2018-08-22T03:26:39.117Z,5.20
2018-08-22T03:28:42.847Z,6.00
2018-08-22T03:30:45.774Z,6.10
2018-08-22T03:32:48.702Z,5.00
2018-08-22T03:34:51.869Z,5.07
2018-08-22T03:36:55.578Z,5.97
2018-08-22T03:38:58.510Z,5.53
2018-08-22T03:41:01.471Z,5.73
2018-08-22T03:43:04.398Z,5.60
2018-08-22T03:45:08.095Z,6.20
2018-08-22T03:47:11.142Z,5.70
2018-08-22T03:49:14.080Z,5.07
2018-08-22T03:51:17.036Z,5.40
2018-08-22T03:53:19.986Z,5.23
2018-08-22T03:55:22.906Z,5.57
2018-08-22T03:57:25.839Z,5.63
2018-08-22T03:59:28.804Z,6.00
2018-08-22T04:01:31.729Z,5.53
2018-08-22T04:03:34.757Z,6.47
2018-08-22T04:05:37.727Z,5.63
2018-08-22T04:07:41.439Z,5.77
2018-08-22T04:09:45.127Z,6.07
2018-08-22T04:11:48.968Z,4.93
2018-08-22T04:13:51.899Z,5.80
2018-08-22T04:15:55.618Z,5.90
2018-08-22T04:17:59.346Z,5.17
2018-08-22T04:20:02.293Z,5.60
2018-08-22T04:22:05.984Z,5.83
2018-08-22T04:24:08.946Z,4.93
2018-08-22T04:26:11.926Z,5.40
2018-08-22T04:28:14.852Z,5.73
2018-08-22T04:30:18.587Z,5.97
2018-08-22T04:32:21.514Z,5.70
2018-08-22T04:34:24.446Z,5.87
2018-08-22T04:36:27.507Z,5.50
2018-08-22T04:38:31.204Z,5.70
2018-08-22T04:40:34.882Z,6.30
2018-08-22T04:42:37.827Z,5.40
2018-08-22T04:44:40.734Z,5.20
2018-08-22T04:46:43.753Z,6.50
2018-08-22T04:48:47.466Z,6.33
2018-08-22T04:50:50.404Z,5.60
2018-08-22T04:52:53.328Z,5.63
2018-08-22T04:54:56.400Z,6.33
2018-08-22T04:57:00.093Z,6.10
2018-08-22T04:59:03.018Z,4.97
2018-08-22T05:01:06.071Z,6.43
2018-08-22T05:03:09.769Z,6.30
2018-08-22T05:05:13.572Z,5.60
2018-08-22T05:07:17.311Z,6.53
2018-08-22T05:09:20.356Z,6.13
2018-08-22T05:11:24.040Z,5.20
2018-08-22T05:13:27.157Z,5.93
2018-08-22T05:15:30.918Z,5.20
2018-08-22T05:17:33.923Z,5.80
2018-08-22T05:19:37.638Z,5.30
2018-08-22T05:21:40.567Z,5.83
2018-08-22T05:23:43.590Z,5.77
2018-08-22T05:25:47.306Z,6.20
2018-08-22T05:27:50.990Z,5.40
2018-08-22T05:29:54.674Z,7.23
2018-08-22T05:31:58.494Z,5.77
2018-08-22T05:34:02.297Z,5.90
2018-08-22T05:36:05.996Z,6.40
2018-08-22T05:38:09.720Z,4.97
2018-08-22T05:40:12.656Z,6.40
2018-08-22T05:42:15.587Z,5.73
2018-08-22T05:44:18.645Z,6.03
2018-08-22T05:46:22.370Z,5.33
2018-08-22T05:48:25.286Z,5.23
2018-08-22T05:50:28.242Z,5.80
2018-08-22T05:52:31.995Z,5.87
2018-08-22T05:54:35.695Z,5.60
2018-08-22T05:56:39.430Z,6.60
2018-08-22T05:58:42.368Z,5.80
2018-08-22T06:00:46.910Z,5.63
2018-08-22T06:02:51.941Z,5.37
2018-08-22T06:04:55.620Z,5.20
2018-08-22T06:06:59.167Z,5.50
2018-08-22T06:09:02.272Z,5.17
2018-08-22T06:11:05.191Z,5.40
2018-08-22T06:13:09.519Z,5.63
2018-08-22T06:15:16.108Z,5.30
2018-08-22T06:17:22.246Z,6.20
2018-08-22T06:19:26.759Z,5.03
2018-08-22T06:21:30.668Z,5.07
2018-08-22T06:23:34.932Z,5.60
2018-08-22T06:25:39.412Z,5.33
2018-08-22T06:27:42.391Z,5.97
2018-08-22T06:29:46.364Z,5.60
2018-08-22T06:31:51.423Z,5.70
2018-08-22T06:33:55.888Z,5.43
2018-08-22T06:35:58.827Z,5.50
2018-08-22T06:38:06.078Z,5.17
2018-08-22T06:40:09.655Z,5.70
2018-08-22T06:42:13.279Z,6.00
2018-08-22T06:44:19.869Z,5.40
2018-08-22T06:46:24.407Z,5.13
2018-08-22T06:48:27.327Z,5.73
2018-08-22T06:50:30.349Z,5.30
2018-08-22T06:52:34.590Z,5.23
2018-08-22T06:54:38.226Z,6.00
2018-08-22T06:56:42.035Z,5.90
2018-08-22T06:58:46.554Z,5.40
2018-08-22T07:00:50.331Z,5.90
2018-08-22T07:02:54.170Z,5.50
2018-08-22T07:04:58.135Z,4.97
2018-08-22T07:07:02.102Z,5.60
2018-08-22T07:09:05.776Z,4.87
2018-08-22T07:11:08.744Z,5.57
2018-08-22T07:13:12.277Z,5.50
2018-08-22T07:15:16.139Z,5.00
2018-08-22T07:17:19.290Z,5.10
2018-08-22T07:19:22.204Z,5.37
2018-08-22T07:21:25.234Z,5.43
2018-08-22T07:23:28.955Z,5.50
2018-08-22T07:25:31.891Z,6.17
2018-08-22T07:27:34.909Z,6.10
2018-08-22T07:29:38.630Z,5.77
2018-08-22T07:31:41.557Z,4.93
2018-08-22T07:33:44.541Z,4.83
2018-08-22T07:35:47.563Z,5.10
2018-08-22T07:37:50.549Z,5.63
2018-08-22T07:39:53.483Z,6.30
2018-08-22T07:41:56.514Z,5.30
2018-08-22T07:43:59.448Z,4.97
2018-08-22T07:46:02.463Z,5.50
2018-08-22T07:48:06.199Z,5.40
2018-08-22T07:50:09.131Z,5.90
2018-08-22T07:52:12.846Z,5.97
2018-08-22T07:54:16.566Z,5.90
2018-08-22T07:56:19.486Z,6.20
2018-08-22T07:58:22.409Z,6.60
2018-08-22T08:00:26.136Z,7.70
2018-08-22T08:02:29.054Z,5.13
2018-08-22T08:04:32.078Z,6.00
2018-08-22T08:06:35.795Z,5.90
2018-08-22T08:08:38.766Z,5.77
2018-08-22T08:10:42.461Z,6.13
2018-08-22T08:12:46.178Z,6.17
2018-08-22T08:14:49.122Z,5.60
2018-08-22T08:16:52.813Z,5.70
2018-08-22T08:18:55.795Z,5.40
2018-08-22T08:20:59.527Z,5.77
2018-08-22T08:23:02.532Z,5.80
2018-08-22T08:25:05.591Z,5.87
2018-08-22T08:27:09.292Z,6.27
2018-08-22T08:29:13.097Z,4.73
2018-08-22T08:31:16.818Z,5.67
2018-08-22T08:33:19.739Z,5.60
2018-08-22T08:35:22.889Z,4.83
2018-08-22T08:37:26.503Z,6.00
2018-08-22T08:39:29.415Z,5.27
2018-08-22T08:41:32.381Z,5.27
2018-08-22T08:43:35.408Z,5.90
2018-08-22T08:45:38.380Z,5.70
2018-08-22T08:47:42.082Z,5.57
2018-08-22T08:49:45.902Z,5.17
2018-08-22T08:51:48.835Z,4.87
2018-08-22T08:53:51.780Z,5.57
2018-08-22T08:55:54.764Z,5.20
2018-08-22T08:57:57.697Z,4.97
2018-08-22T09:00:00.646Z,5.57
2018-08-22T09:02:03.671Z,6.00
2018-08-22T09:04:06.595Z,4.93
2018-08-22T09:06:09.522Z,4.87
2018-08-22T09:08:12.740Z,5.40
2018-08-22T09:10:16.441Z,6.20
2018-08-22T09:12:20.217Z,5.33
2018-08-22T09:14:24.075Z,6.00
2018-08-22T09:16:26.988Z,5.10
2018-08-22T09:18:29.917Z,5.70
2018-08-22T09:20:33.635Z,5.00
2018-08-22T09:22:36.573Z,4.60
2018-08-22T09:24:39.487Z,5.80
2018-08-22T09:26:42.575Z,5.80
2018-08-22T09:28:45.644Z,4.57
2018-08-22T09:30:49.343Z,5.43
2018-08-22T09:32:53.084Z,5.10
2018-08-22T09:34:56.026Z,5.23
2018-08-22T09:36:58.979Z,5.80
2018-08-22T09:39:01.960Z,4.80
2018-08-22T09:41:04.945Z,5.50
2018-08-22T09:43:07.884Z,5.40
2018-08-22T09:45:10.927Z,5.13
2018-08-22T09:47:14.628Z,5.97
2018-08-22T09:49:18.331Z,4.93
2018-08-22T09:51:22.071Z,5.73
2018-08-22T09:53:24.999Z,6.03
2018-08-22T09:55:27.931Z,6.23
2018-08-22T09:57:30.979Z,5.10
2018-08-22T09:59:34.671Z,5.87
2018-08-22T10:01:38.394Z,6.23
2018-08-22T10:03:42.126Z,5.13
2018-08-22T10:05:45.301Z,5.60
2018-08-22T10:07:48.261Z,5.93
2018-08-22T10:09:52.038Z,5.00
2018-08-22T10:11:54.963Z,5.00
2018-08-22T10:13:57.890Z,5.60
2018-08-22T10:16:00.850Z,5.00
2018-08-22T10:18:03.773Z,5.67
2018-08-22T10:20:06.696Z,6.00
2018-08-22T10:22:09.783Z,5.57
2018-08-22T10:24:12.713Z,5.10
2018-08-22T10:26:15.735Z,5.17
2018-08-22T10:28:18.810Z,5.60
2018-08-22T10:30:22.510Z,5.20
2018-08-22T10:32:25.501Z,5.83
2018-08-22T10:34:29.206Z,5.13
2018-08-22T10:36:32.148Z,5.53
2018-08-22T10:38:35.097Z,5.50
2018-08-22T10:40:38.259Z,5.87
2018-08-22T10:42:41.202Z,5.57
2018-08-22T10:44:44.128Z,5.57
2018-08-22T10:46:47.215Z,5.40
2018-08-22T10:48:50.140Z,5.40
2018-08-22T10:50:53.092Z,7.07
2018-08-22T10:52:56.051Z,5.53
2018-08-22T10:54:58.974Z,5.13
2018-08-22T10:57:02.005Z,5.63
2018-08-22T10:59:05.931Z,6.27
2018-08-22T11:01:08.856Z,5.10
2018-08-22T11:03:11.878Z,5.20
2018-08-22T11:05:15.600Z,5.80
2018-08-22T11:07:18.536Z,5.50
2018-08-22T11:09:21.543Z,6.00
2018-08-22T11:11:25.275Z,6.13
2018-08-22T11:13:28.197Z,5.40
2018-08-22T11:15:31.130Z,5.50
2018-08-22T11:17:34.211Z,5.60
2018-08-22T11:19:37.130Z,5.00
2018-08-22T11:21:51.859Z,6.00
2018-08-22T11:24:06.602Z,6.00
2018-08-22T11:26:21.534Z,5.50
2018-08-22T11:28:36.243Z,5.53
2018-08-22T11:30:51.170Z,5.60
2018-08-22T11:33:06.200Z,5.07
2018-08-22T11:35:08.635Z,5.10
2018-08-22T11:37:11.670Z,4.87
2018-08-22T11:39:15.371Z,5.13
2018-08-22T11:41:18.297Z,5.93
2018-08-22T11:43:21.358Z,5.37
2018-08-22T11:45:25.058Z,5.50
2018-08-22T11:47:28.744Z,5.47
2018-08-22T11:49:32.578Z,5.30
2018-08-22T11:51:35.502Z,4.87
2018-08-22T11:53:38.527Z,4.80
2018-08-22T11:55:42.329Z,4.57
2018-08-22T11:57:46.132Z,4.70
2018-08-22T11:59:49.819Z,4.77
2018-08-22T12:01:53.651Z,4.40
2018-08-22T12:03:56.638Z,4.40
2018-08-22T12:05:59.576Z,4.50
2018-08-22T12:08:03.307Z,4.90
2018-08-22T12:10:06.234Z,4.57
2018-08-22T12:12:09.266Z,4.10
2018-08-22T12:14:13.190Z,3.70
2018-08-22T12:16:16.128Z,3.63
2018-08-22T12:18:19.043Z,3.97
2018-08-22T12:20:22.001Z,3.87
2018-08-22T12:22:24.924Z,4.10
2018-08-22T12:24:27.839Z,4.00
2018-08-22T12:26:30.807Z,4.20
2018-08-22T12:28:33.747Z,4.37
2018-08-22T12:30:36.674Z,4.10
2018-08-22T12:32:39.634Z,4.87
2018-08-22T12:34:42.550Z,4.43
2018-08-22T12:36:45.487Z,3.60
2018-08-22T12:38:48.446Z,4.30
2018-08-22T12:40:52.133Z,4.50
2018-08-22T12:42:55.055Z,3.70
2018-08-22T12:44:58.147Z,4.77
2018-08-22T12:47:01.089Z,5.10
2018-08-22T12:49:04.787Z,4.60
2018-08-22T12:51:07.926Z,4.00
2018-08-22T12:53:10.872Z,4.73
2018-08-22T12:55:14.572Z,4.50
2018-08-22T12:57:18.414Z,4.50
2018-08-22T12:59:21.321Z,3.97
2018-08-22T13:01:24.344Z,3.73
2018-08-22T13:03:28.068Z,3.87
2018-08-22T13:05:30.989Z,3.63
2018-08-22T13:07:34.007Z,3.90
2018-08-22T13:09:37.729Z,3.60
2018-08-22T13:11:40.647Z,3.30
2018-08-22T13:13:43.572Z,3.93
2018-08-22T13:15:47.389Z,4.13
2018-08-22T13:17:50.324Z,4.60
2018-08-22T13:19:53.275Z,3.63
2018-08-22T13:21:56.246Z,3.97
2018-08-22T13:23:59.238Z,4.43
2018-08-22T13:26:02.287Z,3.83
2018-08-22T13:28:06.023Z,4.20
2018-08-22T13:30:08.961Z,4.23
2018-08-22T13:32:12.771Z,3.03
2018-08-22T13:34:16.575Z,3.87
2018-08-22T13:36:20.312Z,3.93
2018-08-22T13:38:24.178Z,3.20
2018-08-22T13:40:27.995Z,3.60
2018-08-22T13:42:30.921Z,3.83
2018-08-22T13:44:33.896Z,3.70
2018-08-22T13:46:36.859Z,3.37
2018-08-22T13:48:39.788Z,3.40
2018-08-22T13:50:42.747Z,2.60
2018-08-22T13:52:45.685Z,3.87
2018-08-22T13:54:49.477Z,3.77
2018-08-22T13:56:52.430Z,2.73
2018-08-22T13:58:55.395Z,3.20
2018-08-22T14:00:58.426Z,3.13
2018-08-22T14:03:02.128Z,4.07
2018-08-22T14:05:05.841Z,3.63
2018-08-22T14:07:08.769Z,3.50
2018-08-22T14:09:11.791Z,3.20
2018-08-22T14:11:15.506Z,3.87
2018-08-22T14:13:18.429Z,3.00
2018-08-22T14:15:21.355Z,2.77
2018-08-22T14:17:25.895Z,2.00
2018-08-22T14:19:28.827Z,2.07
2018-08-22T14:21:31.758Z,3.07
2018-08-22T14:23:34.839Z,2.80
2018-08-22T14:25:37.775Z,2.80
2018-08-22T14:27:40.702Z,2.30
2018-08-22T14:29:43.977Z,2.60
2018-08-22T14:31:47.662Z,2.70
2018-08-22T14:33:50.676Z,2.90
2018-08-22T14:35:53.767Z,2.53
2018-08-22T14:37:56.698Z,3.00
2018-08-22T14:39:59.622Z,2.60
2018-08-22T14:42:02.635Z,2.73
2018-08-22T14:44:05.530Z,2.60
2018-08-22T14:46:08.570Z,2.60
2018-08-22T14:48:12.292Z,3.50
2018-08-22T14:50:15.242Z,2.70
2018-08-22T14:52:19.045Z,3.13
2018-08-22T14:54:22.781Z,3.20
2018-08-22T14:56:25.802Z,3.10
2018-08-22T14:58:29.413Z,2.90
2018-08-22T15:00:32.526Z,3.10
2018-08-22T15:02:35.544Z,2.73
2018-08-22T15:04:38.472Z,3.47
2018-08-22T15:06:42.194Z,3.53
2018-08-22T15:08:45.122Z,3.53
2018-08-22T15:10:48.063Z,3.30
2018-08-22T15:12:51.144Z,3.67
2018-08-22T15:14:54.082Z,3.20
2018-08-22T15:16:57.012Z,2.90
2018-08-22T15:19:00.063Z,2.77
2018-08-22T15:21:03.759Z,3.37
2018-08-22T15:23:07.446Z,3.60
2018-08-22T15:25:10.414Z,2.83
2018-08-22T15:27:14.108Z,3.00
2018-08-22T15:29:17.037Z,3.10
2018-08-22T15:31:20.754Z,2.80
2018-08-22T15:33:23.679Z,3.00
2018-08-22T15:35:26.704Z,3.27
2018-08-22T15:37:30.439Z,3.60
2018-08-22T15:39:33.358Z,3.33
2018-08-22T15:41:36.288Z,2.63
2018-08-22T15:43:40.102Z,3.27
2018-08-22T15:45:43.030Z,3.33
2018-08-22T15:47:45.981Z,3.37
2018-08-22T15:49:48.917Z,3.30
2018-08-22T15:51:52.718Z,3.40
2018-08-22T15:53:56.424Z,3.43
2018-08-22T15:56:00.135Z,2.87
2018-08-22T15:58:03.080Z,3.63
2018-08-22T16:00:06.187Z,3.30
2018-08-22T16:02:09.989Z,3.40
2018-08-22T16:04:13.672Z,2.83
2018-08-22T16:06:16.593Z,3.60
2018-08-22T16:08:19.705Z,3.50
2018-08-22T16:10:22.620Z,3.50
2018-08-22T16:12:25.530Z,3.00
2018-08-22T16:14:28.520Z,3.07
2018-08-22T16:16:32.196Z,3.57
2018-08-22T16:18:35.883Z,3.50
2018-08-22T16:20:38.883Z,3.20
2018-08-22T16:22:42.571Z,4.07
2018-08-22T16:24:46.254Z,2.90
2018-08-22T16:26:49.205Z,4.00
2018-08-22T16:28:52.123Z,3.70
2018-08-22T16:30:57.804Z,3.23
2018-08-22T16:32:58.862Z,3.80
2018-08-22T16:35:01.787Z,2.80
2018-08-22T16:37:04.719Z,2.90
2018-08-22T16:39:07.781Z,3.13
2018-08-22T16:41:10.725Z,3.20
2018-08-22T16:43:13.651Z,3.33
2018-08-22T16:45:16.755Z,3.40
2018-08-22T16:47:19.677Z,3.53
2018-08-22T16:49:22.699Z,3.10
2018-08-22T16:51:25.681Z,3.37
2018-08-22T16:53:29.358Z,3.50
2018-08-22T16:55:32.284Z,3.37
2018-08-22T16:57:35.375Z,3.17
2018-08-22T16:59:38.298Z,3.23
2018-08-22T17:01:41.258Z,3.17
2018-08-22T17:03:44.216Z,3.33
2018-08-22T17:05:47.143Z,3.30
2018-08-22T17:07:50.179Z,3.33
2018-08-22T17:09:53.126Z,3.23
2018-08-22T17:11:56.824Z,3.70
2018-08-22T17:14:00.518Z,3.27
2018-08-22T17:16:03.547Z,3.60
2018-08-22T17:18:06.479Z,2.80
2018-08-22T17:20:09.399Z,2.80
2018-08-22T17:22:12.375Z,3.47
2018-08-22T17:24:15.311Z,3.23
2018-08-22T17:26:18.245Z,2.97
2018-08-22T17:28:21.203Z,3.50
2018-08-22T17:30:24.927Z,2.90
2018-08-22T17:32:28.603Z,3.67
2018-08-22T17:34:32.424Z,2.93
2018-08-22T17:36:36.117Z,3.73
2018-08-22T17:38:39.921Z,3.00
2018-08-22T17:40:43.716Z,3.10
2018-08-22T17:42:47.407Z,3.00
2018-08-22T17:44:51.096Z,3.77
2018-08-22T17:46:54.039Z,3.40
2018-08-22T17:48:56.966Z,3.00
2018-08-22T17:50:59.896Z,3.20
2018-08-22T17:53:02.970Z,3.10
2018-08-22T17:55:05.906Z,3.40
2018-08-22T17:57:11.697Z,3.07
2018-08-22T17:59:14.647Z,2.87
2018-08-22T18:01:17.570Z,3.17
2018-08-22T18:03:20.515Z,3.27
2018-08-22T18:05:24.246Z,3.37
2018-08-22T18:07:27.182Z,3.40
2018-08-22T18:09:31.628Z,3.53
2018-08-22T18:11:35.358Z,3.47
2018-08-22T18:13:38.286Z,3.23
2018-08-22T18:15:41.206Z,3.30
2018-08-22T18:17:44.218Z,3.70
2018-08-22T18:19:47.138Z,3.63
2018-08-22T18:21:50.063Z,3.37
2018-08-22T18:23:53.020Z,3.70
2018-08-22T18:25:56.722Z,4.00
2018-08-22T18:28:00.421Z,3.40
2018-08-22T18:30:04.162Z,4.20
2018-08-22T18:32:07.100Z,4.10
2018-08-22T18:34:10.214Z,3.95
2018-08-22T18:36:13.319Z,3.63
2018-08-22T18:38:16.216Z,3.50
2018-08-22T18:40:19.282Z,4.20
2018-08-22T18:42:22.366Z,3.20
2018-08-22T18:44:25.299Z,3.50
2018-08-22T18:46:28.293Z,4.07
2018-08-22T18:48:32.028Z,3.50
2018-08-22T18:50:34.948Z,3.67
2018-08-22T18:52:37.883Z,4.10
2018-08-22T18:54:40.941Z,3.73
2018-08-22T18:56:44.631Z,3.50
2018-08-22T18:58:48.337Z,3.53
2018-08-22T19:00:52.163Z,4.73
2018-08-22T19:02:55.103Z,3.60
2018-08-22T19:04:58.026Z,4.10
2018-08-22T19:07:01.096Z,4.47
2018-08-22T19:09:04.790Z,3.70
2018-08-22T19:11:08.547Z,3.70
2018-08-22T19:13:11.558Z,3.63
2018-08-22T19:15:15.255Z,3.57
2018-08-22T19:17:18.185Z,3.77
2018-08-22T19:19:21.245Z,4.43
2018-08-22T19:21:25.125Z,4.65
2018-08-22T19:23:28.056Z,3.90
2018-08-22T19:25:31.126Z,3.87
2018-08-22T19:27:34.713Z,4.10
2018-08-22T19:29:38.430Z,4.23
2018-08-22T19:31:41.401Z,4.30
2018-08-22T19:33:44.334Z,3.70
2018-08-22T19:35:47.372Z,3.80
2018-08-22T19:37:50.448Z,4.10
2018-08-22T19:39:54.249Z,4.00
2018-08-22T19:41:57.946Z,4.10
2018-08-22T19:44:01.667Z,4.17
2018-08-22T19:46:04.601Z,4.13
2018-08-22T19:48:09.032Z,3.70
2018-08-22T19:50:12.767Z,4.13
2018-08-22T19:52:15.707Z,4.30
2018-08-22T19:54:18.635Z,4.60
2018-08-22T19:56:21.767Z,4.07
2018-08-22T19:58:24.651Z,3.43
2018-08-22T20:00:27.641Z,4.03
2018-08-22T20:02:30.610Z,4.30
2018-08-22T20:04:33.684Z,4.97
2018-08-22T20:06:36.578Z,3.80
2018-08-22T20:08:39.913Z,3.10
2018-08-22T20:10:42.838Z,3.93
2018-08-22T20:12:45.868Z,4.17
2018-08-22T20:14:49.617Z,4.57
2018-08-22T20:16:52.566Z,3.90
2018-08-22T20:18:56.242Z,3.70
2018-08-22T20:20:59.983Z,4.10
2018-08-22T20:23:02.947Z,3.83
2018-08-22T20:25:06.633Z,3.87
2018-08-22T20:27:10.366Z,3.50
2018-08-22T20:29:13.298Z,3.80
2018-08-22T20:31:16.222Z,4.30
2018-08-22T20:33:19.185Z,3.77
2018-08-22T20:35:22.111Z,4.10
2018-08-22T20:37:25.158Z,4.17
2018-08-22T20:39:29.074Z,4.60
2018-08-22T20:41:31.988Z,3.97
2018-08-22T20:43:34.934Z,4.10
2018-08-22T20:45:37.926Z,4.00
2018-08-22T20:47:40.854Z,4.80
2018-08-22T20:49:43.783Z,3.50
2018-08-22T20:51:46.847Z,3.97
2018-08-22T20:53:51.188Z,4.23
2018-08-22T20:55:54.116Z,4.10
2018-08-22T20:57:57.067Z,4.47
2018-08-22T21:00:00.011Z,4.00
2018-08-22T21:02:03.716Z,3.80
2018-08-22T21:04:06.811Z,4.03
2018-08-22T21:06:09.737Z,5.73
2018-08-22T21:08:12.667Z,4.20
2018-08-22T21:10:16.379Z,3.67
2018-08-22T21:12:19.297Z,3.67
2018-08-22T21:14:22.212Z,4.53
2018-08-22T21:16:26.023Z,3.93
2018-08-22T21:18:29.110Z,4.00
2018-08-22T21:20:32.909Z,4.67
2018-08-22T21:22:36.634Z,4.07
2018-08-22T21:24:39.600Z,3.37
2018-08-22T21:26:43.293Z,3.77
2018-08-22T21:28:47.023Z,4.23
2018-08-22T21:30:49.947Z,3.73
2018-08-22T21:32:52.876Z,3.90
2018-08-22T21:34:55.941Z,3.33
2018-08-22T21:36:59.621Z,3.50
2018-08-22T21:39:02.555Z,3.80
2018-08-22T21:41:05.607Z,3.53
2018-08-22T21:43:09.307Z,4.20
2018-08-22T21:45:12.991Z,3.70
2018-08-22T21:47:16.810Z,4.87
2018-08-22T21:49:20.510Z,3.73
2018-08-22T21:51:24.352Z,3.67
2018-08-22T21:53:27.398Z,4.40
2018-08-22T21:55:30.401Z,3.70
2018-08-22T21:57:33.921Z,4.00
2018-08-22T21:59:36.898Z,4.97
2018-08-22T22:01:39.956Z,4.10
2018-08-22T22:03:42.894Z,4.23
2018-08-22T22:05:45.866Z,3.77
2018-08-22T22:07:48.795Z,5.67
2018-08-22T22:09:51.730Z,4.30
2018-08-22T22:11:54.698Z,4.20
2018-08-22T22:13:57.610Z,4.70
2018-08-22T22:16:00.538Z,4.63
2018-08-22T22:18:03.608Z,4.40
2018-08-22T22:20:06.520Z,4.17
2018-08-22T22:22:09.443Z,3.77
2018-08-22T22:24:12.411Z,4.33
2018-08-22T22:26:15.354Z,4.70
2018-08-22T22:28:18.283Z,4.30
2018-08-22T22:30:21.247Z,4.60
2018-08-22T22:32:24.172Z,4.70
2018-08-22T22:34:28.049Z,4.70
2018-08-22T22:36:32.518Z,4.80
2018-08-22T22:38:35.454Z,5.03
2018-08-22T22:40:38.399Z,5.07
2018-08-22T22:42:41.360Z,4.37
2018-08-22T22:44:44.341Z,4.30
2018-08-22T22:46:47.262Z,5.10
2018-08-22T22:48:50.320Z,5.23
2018-08-22T22:50:53.243Z,4.83
2018-08-22T22:52:56.171Z,5.10
2018-08-22T22:54:59.140Z,5.10
2018-08-22T22:57:02.840Z,5.27
2018-08-22T22:59:06.643Z,5.10
2018-08-22T23:01:10.464Z,5.30
2018-08-22T23:03:13.407Z,4.77
2018-08-22T23:05:17.110Z,5.30
2018-08-22T23:07:20.836Z,4.73
2018-08-22T23:09:23.912Z,5.30
2018-08-22T23:11:27.719Z,4.93
2018-08-22T23:13:30.669Z,5.23
2018-08-22T23:15:33.598Z,4.70
2018-08-22T23:17:36.535Z,5.43
2018-08-22T23:19:39.666Z,4.87
2018-08-22T23:21:42.590Z,5.10
2018-08-22T23:23:45.519Z,5.03
2018-08-22T23:25:48.474Z,5.40
2018-08-22T23:27:52.179Z,5.13
2018-08-22T23:29:56.623Z,4.33
2018-08-22T23:32:00.515Z,5.10
2018-08-22T23:34:04.316Z,4.87
2018-08-22T23:36:08.008Z,4.97
2018-08-22T23:38:12.144Z,5.00
2018-08-22T23:40:15.079Z,5.20
2018-08-22T23:42:18.009Z,5.13
2018-08-22T23:44:21.075Z,4.60
2018-08-22T23:46:24.774Z,4.60
2018-08-22T23:48:28.577Z,4.90
2018-08-22T23:50:32.349Z,4.80
2018-08-22T23:52:35.296Z,4.50
2018-08-22T23:54:38.227Z,5.50
2018-08-22T23:56:42.059Z,5.70
2018-08-22T23:58:44.987Z,5.77
